Historical Weather Data

Soule Park Golf Course
1033 East Ojai Ave
Ojai, CA 93023
Date ET
(Inches)
Rain
(Inches)
Temp °F
Humidity
Avg
Wind MPH
Avg
Solar Wm2
Avg
High Ave Low
10/1/16 0.17 0.00 87.3 68.4 52.2 53 2.5 238
10/2/16 0.15 0.00 78.4 62.1 45.8 61 2.9 237
10/3/16 0.16 0.00 78.8 62.5 46.3 51 2.9 235
10/4/16 0.15 0.00 79.6 62.1 44.6 56 2.6 234
10/5/16 0.14 0.00 79.1 60.3 43.4 65 2.6 227
10/6/16 0.17 0.00 89.2 65.7 43.8 38 2.6 233
10/7/16 0.17 0.00 94.4 69.2 49.1 29 2.8 207
10/8/16 0.18 0.00 92.3 69.5 49.6 30 2.6 228
10/9/16 0.17 0.00 93.5 69.3 48.9 35 2.6 223
10/10/16 0.16 0.00 88.6 67.0 48.4 48 2.5 221
10/11/16 0.12 0.00 77.7 60.1 48.2 76 2.6 209
10/12/16 0.10 0.00 73.7 57.8 47.0 81 2.5 183
10/13/16 0.12 0.00 80.0 60.0 44.4 75 2.2 200
10/14/16 0.12 0.00 78.5 60.3 46.6 76 2.2 208
10/15/16 0.12 0.00 78.4 62.9 48.9 79 2.7 202
10/16/16 0.11 0.03 76.7 65.6 57.7 78 3.1 182
10/17/16 0.13 0.08 78.7 65.4 54.1 77 1.8 213
10/18/16 0.14 0.00 81.5 63.3 46.0 54 2.8 212
10/19/16 0.17 0.00 92.8 67.7 48.1 37 2.8 212
10/20/16 0.17 0.00 97.4 70.8 48.4 30 2.6 216
10/21/16 0.17 0.00 96.0 70.0 49.4 29 2.5 213
10/22/16 0.14 0.00 88.4 64.8 47.8 41 2.4 200
10/23/16 0.07 0.00 80.9 60.6 47.0 57 2.5 75
10/24/16 0.12 0.00 78.3 62.7 52.2 69 2.6 185
10/25/16 0.12 0.00 80.6 60.4 45.5 71 2.4 193
10/26/16 0.13 0.00 84.8 63.4 45.4 58 2.3 187
10/27/16 0.07 0.00 81.3 66.3 52.8 52 1.9 82
10/28/16 0.08 0.30 75.0 63.7 54.4 84 2.4 129
10/29/16 0.08 0.00 82.4 64.2 49.5 75 1.4 134
10/30/16 0.02 0.20 67.0 61.3 56.6 92 1.3 44
10/31/16 0.11 0.00 71.5 58.3 46.5 83 1.5 196